createdAt,value
2022-08-20T00:03:53.423Z,25.07
2022-08-20T00:06:20.067Z,25.04
2022-08-20T00:08:47.442Z,25.03
2022-08-20T00:11:13.932Z,25.11
2022-08-20T00:13:40.922Z,25.11
2022-08-20T00:19:02.063Z,25.02
2022-08-20T00:21:29.443Z,25.06
2022-08-20T00:23:57.879Z,24.91
2022-08-20T00:26:25.269Z,24.95
2022-08-20T00:28:51.721Z,24.94
2022-08-20T00:34:12.270Z,24.90
2022-08-20T00:36:38.813Z,24.95
2022-08-20T00:39:05.257Z,24.82
2022-08-20T00:41:32.609Z,24.99
2022-08-20T00:44:01.614Z,24.90
2022-08-20T00:49:13.710Z,24.93
2022-08-20T00:51:41.088Z,24.79
2022-08-20T00:54:08.547Z,24.90
2022-08-20T00:56:34.990Z,24.99
2022-08-20T00:59:02.356Z,24.77
2022-08-20T01:04:24.035Z,24.58
2022-08-20T01:06:51.313Z,24.59
2022-08-20T01:09:17.775Z,24.55
2022-08-20T01:12:04.251Z,24.59
2022-08-20T01:14:31.632Z,24.67
2022-08-20T01:19:52.933Z,24.67
2022-08-20T01:22:20.338Z,24.72
2022-08-20T01:24:47.713Z,24.67
2022-08-20T01:27:15.111Z,24.74
2022-08-20T01:29:41.578Z,24.82
2022-08-20T01:35:03.750Z,24.69
2022-08-20T01:37:31.847Z,24.69
2022-08-20T01:39:58.449Z,24.68
2022-08-20T01:42:24.959Z,24.71
2022-08-20T01:44:51.416Z,24.78
2022-08-20T01:50:01.769Z,24.71
2022-08-20T01:52:28.212Z,24.68
2022-08-20T01:54:54.678Z,24.63
2022-08-20T01:57:22.055Z,24.67
2022-08-20T01:59:48.514Z,24.69
2022-08-20T02:04:59.978Z,24.57
2022-08-20T02:07:26.448Z,24.65
2022-08-20T02:09:52.895Z,24.75
2022-08-20T02:12:20.251Z,24.73
2022-08-20T02:14:46.713Z,24.67
2022-08-20T02:20:07.097Z,24.26
2022-08-20T02:22:34.541Z,24.30
2022-08-20T02:25:01.071Z,24.36
2022-08-20T02:27:27.536Z,24.29
2022-08-20T02:29:54.948Z,24.26
2022-08-20T02:35:06.431Z,24.35
2022-08-20T02:37:32.909Z,24.10
2022-08-20T02:39:59.428Z,24.24
2022-08-20T02:42:25.976Z,24.36
2022-08-20T02:44:53.435Z,24.38
2022-08-20T02:50:07.941Z,24.43
2022-08-20T02:52:35.472Z,24.45
2022-08-20T02:55:02.875Z,24.33
2022-08-20T02:57:30.258Z,24.21
2022-08-20T02:59:57.622Z,24.16
2022-08-20T03:05:18.123Z,24.06
2022-08-20T03:07:44.654Z,23.99
2022-08-20T03:10:12.013Z,23.87
2022-08-20T03:12:39.378Z,23.81
2022-08-20T03:15:05.854Z,23.71
2022-08-20T03:20:18.393Z,23.64
2022-08-20T03:22:50.391Z,23.57
2022-08-20T03:25:17.786Z,23.53
2022-08-20T03:27:44.240Z,23.45
2022-08-20T03:30:12.694Z,23.33
2022-08-20T03:32:39.160Z,23.47
2022-08-20T03:35:05.636Z,23.56
2022-08-20T03:37:32.109Z,23.46
2022-08-20T03:39:58.629Z,23.47
2022-08-20T03:42:26.039Z,23.50
2022-08-20T03:44:58.561Z,23.64
2022-08-20T03:47:25.883Z,23.62
2022-08-20T03:49:52.366Z,23.58
2022-08-20T03:52:19.768Z,23.66
2022-08-20T03:54:46.252Z,23.54
2022-08-20T03:57:13.668Z,23.70
2022-08-20T03:59:41.071Z,23.77
2022-08-20T04:02:07.612Z,23.75
2022-08-20T04:04:35.041Z,23.68
2022-08-20T04:07:01.512Z,23.57
2022-08-20T04:09:28.035Z,23.59
2022-08-20T04:11:54.521Z,23.48
2022-08-20T04:14:21.942Z,23.62
2022-08-20T04:16:49.325Z,23.84
2022-08-20T04:19:16.809Z,23.97
2022-08-20T04:21:43.263Z,24.07
2022-08-20T04:24:22.013Z,24.14
2022-08-20T04:26:57.146Z,24.30
2022-08-20T04:29:25.204Z,24.29
2022-08-20T04:31:58.797Z,24.43
2022-08-20T04:34:25.278Z,24.35
2022-08-20T04:36:51.748Z,24.01
2022-08-20T04:39:18.213Z,24.05
2022-08-20T04:41:44.705Z,24.02
2022-08-20T04:44:12.099Z,24.07
2022-08-20T04:46:38.606Z,24.03
2022-08-20T04:49:05.100Z,24.02
2022-08-20T04:51:32.566Z,24.04
2022-08-20T04:53:59.965Z,24.16
2022-08-20T04:56:26.437Z,24.13
2022-08-20T04:58:52.934Z,24.00
2022-08-20T05:01:20.372Z,23.84
2022-08-20T05:03:46.958Z,23.83
2022-08-20T05:06:13.442Z,23.95
2022-08-20T05:08:39.985Z,23.73
2022-08-20T05:11:32.829Z,23.80
2022-08-20T05:13:54.749Z,23.80
2022-08-20T05:16:22.179Z,23.52
2022-08-20T05:18:52.352Z,23.39
2022-08-20T05:21:20.276Z,23.34
2022-08-20T05:23:46.779Z,23.53
2022-08-20T05:26:14.206Z,23.49
2022-08-20T05:28:52.747Z,23.60
2022-08-20T05:31:32.230Z,23.78
2022-08-20T05:34:00.640Z,23.85
2022-08-20T05:36:28.062Z,23.88
2022-08-20T05:38:55.502Z,23.58
2022-08-20T05:41:28.726Z,23.62
2022-08-20T05:43:55.868Z,23.67
2022-08-20T05:46:22.359Z,23.77
2022-08-20T05:48:49.637Z,23.83
2022-08-20T05:51:17.034Z,23.75
2022-08-20T05:53:43.519Z,23.65
2022-08-20T05:56:10.034Z,23.59
2022-08-20T05:58:37.453Z,23.38
2022-08-20T06:01:04.043Z,23.55
2022-08-20T06:03:30.558Z,23.49
2022-08-20T06:05:57.104Z,23.62
2022-08-20T06:08:23.591Z,23.71
2022-08-20T06:10:50.999Z,23.72
2022-08-20T06:13:18.379Z,23.48
2022-08-20T06:15:45.765Z,23.42
2022-08-20T06:18:27.595Z,23.42
2022-08-20T06:20:55.577Z,23.29
2022-08-20T06:23:23.063Z,23.30
2022-08-20T06:25:50.471Z,23.44
2022-08-20T06:28:17.853Z,23.36
2022-08-20T06:30:45.271Z,23.43
2022-08-20T06:33:12.686Z,23.42
2022-08-20T06:35:39.234Z,23.28
2022-08-20T06:38:06.651Z,23.27
2022-08-20T06:40:34.043Z,23.36
2022-08-20T06:43:00.526Z,23.31
2022-08-20T06:45:27.946Z,23.42
2022-08-20T06:47:55.638Z,23.41
2022-08-20T06:50:22.265Z,23.44
2022-08-20T06:52:52.842Z,23.59
2022-08-20T06:55:30.558Z,23.69
2022-08-20T06:57:58.078Z,23.69
2022-08-20T07:00:24.576Z,23.47
2022-08-20T07:02:51.068Z,23.60
2022-08-20T07:05:18.496Z,23.57
2022-08-20T07:07:44.994Z,23.59
2022-08-20T07:10:12.438Z,23.71
2022-08-20T07:12:39.852Z,23.90
2022-08-20T07:15:06.343Z,24.01
2022-08-20T07:17:33.755Z,24.07
2022-08-20T07:20:01.222Z,24.08
2022-08-20T07:22:27.712Z,24.03
2022-08-20T07:24:55.117Z,24.14
2022-08-20T07:27:22.525Z,24.08
2022-08-20T07:29:49.924Z,23.90
2022-08-20T07:32:17.340Z,23.92
2022-08-20T07:34:49.210Z,23.88
2022-08-20T07:37:16.653Z,23.90
2022-08-20T07:39:44.123Z,24.09
2022-08-20T07:42:11.636Z,24.27
2022-08-20T07:44:39.040Z,24.36
2022-08-20T07:47:06.467Z,24.45
2022-08-20T07:49:32.974Z,24.48
2022-08-20T07:51:59.462Z,24.55
2022-08-20T07:54:25.943Z,24.60
2022-08-20T07:56:56.847Z,24.63
2022-08-20T07:59:23.337Z,24.64
2022-08-20T08:01:50.729Z,24.69
2022-08-20T08:04:18.159Z,24.71
2022-08-20T08:06:45.545Z,24.73
2022-08-20T08:09:12.962Z,24.75
2022-08-20T08:11:39.421Z,24.79
2022-08-20T08:14:06.785Z,24.83
2022-08-20T08:16:33.267Z,24.86
2022-08-20T08:19:00.590Z,24.87
2022-08-20T08:21:27.077Z,24.90
2022-08-20T08:23:53.572Z,24.91
2022-08-20T08:26:20.029Z,24.93
2022-08-20T08:28:46.524Z,24.95
2022-08-20T08:31:13.050Z,24.97
2022-08-20T08:33:41.355Z,25.00
2022-08-20T08:36:08.611Z,25.01
2022-08-20T08:38:35.168Z,25.01
2022-08-20T08:41:02.436Z,25.03
2022-08-20T08:43:31.693Z,25.05
2022-08-20T08:45:59.204Z,25.06
2022-08-20T08:48:25.624Z,25.09
2022-08-20T08:50:54.181Z,25.23
2022-08-20T08:53:21.143Z,25.36
2022-08-20T08:55:49.528Z,25.48
2022-08-20T08:58:16.536Z,25.53
2022-08-20T09:00:56.597Z,25.64
2022-08-20T09:03:24.122Z,25.73
2022-08-20T09:05:50.626Z,25.85
2022-08-20T09:08:17.883Z,25.87
2022-08-20T09:10:44.396Z,25.92
2022-08-20T09:13:10.916Z,25.95
2022-08-20T09:15:37.439Z,26.05
2022-08-20T09:18:03.914Z,26.12
2022-08-20T09:20:30.378Z,26.04
2022-08-20T09:22:57.050Z,26.18
2022-08-20T09:25:23.645Z,26.24
2022-08-20T09:27:50.098Z,26.16
2022-08-20T09:30:19.274Z,26.25
2022-08-20T09:32:46.833Z,26.27
2022-08-20T09:35:15.076Z,26.46
2022-08-20T09:37:41.526Z,26.49
2022-08-20T09:40:08.100Z,26.38
2022-08-20T09:42:40.955Z,26.49
2022-08-20T09:45:11.068Z,26.53
2022-08-20T09:47:55.204Z,26.50
2022-08-20T09:50:24.282Z,26.57
2022-08-20T09:52:51.066Z,26.54
2022-08-20T09:55:20.809Z,26.34
2022-08-20T09:57:49.102Z,26.35
2022-08-20T10:00:15.597Z,26.28
2022-08-20T10:02:45.517Z,26.30
2022-08-20T10:05:12.387Z,26.28
2022-08-20T10:07:39.001Z,26.22
2022-08-20T10:10:05.496Z,26.22
2022-08-20T10:12:31.916Z,26.18
2022-08-20T10:14:58.384Z,26.18
2022-08-20T10:17:24.760Z,26.22
2022-08-20T10:19:52.026Z,26.18
2022-08-20T10:22:18.453Z,26.18
2022-08-20T10:24:45.097Z,26.14
2022-08-20T10:27:12.627Z,26.16
2022-08-20T10:29:39.249Z,26.18
2022-08-20T10:32:06.552Z,26.15
2022-08-20T10:34:33.053Z,26.22
2022-08-20T10:36:59.557Z,26.22
2022-08-20T10:39:26.004Z,26.19
2022-08-20T10:41:52.477Z,26.18
2022-08-20T10:44:18.902Z,26.18
2022-08-20T10:46:46.193Z,26.15
2022-08-20T10:49:15.375Z,26.14
2022-08-20T10:51:41.812Z,26.17
2022-08-20T10:54:12.562Z,26.19
2022-08-20T10:56:42.057Z,26.18
2022-08-20T10:59:10.407Z,26.21
2022-08-20T11:01:38.741Z,26.20
2022-08-20T11:04:05.236Z,26.27
2022-08-20T11:06:31.655Z,26.24
2022-08-20T11:08:58.050Z,26.19
2022-08-20T11:11:30.086Z,26.20
2022-08-20T11:13:57.476Z,26.25
2022-08-20T11:16:29.071Z,26.39
2022-08-20T11:18:58.274Z,26.55
2022-08-20T11:21:25.497Z,26.61
2022-08-20T11:23:54.680Z,26.66
2022-08-20T11:26:21.118Z,26.67
2022-08-20T11:28:47.587Z,26.73
2022-08-20T11:31:16.724Z,26.84
2022-08-20T11:33:43.975Z,26.88
2022-08-20T11:36:10.339Z,26.82
2022-08-20T11:38:39.514Z,26.93
2022-08-20T11:41:05.912Z,26.93
2022-08-20T11:43:32.332Z,27.00
2022-08-20T11:45:58.708Z,26.96
2022-08-20T11:48:25.951Z,27.03
2022-08-20T11:50:52.288Z,26.96
2022-08-20T11:53:19.528Z,26.74
2022-08-20T11:55:45.910Z,26.52
2022-08-20T11:58:14.189Z,26.45
2022-08-20T12:00:40.564Z,26.69
2022-08-20T12:03:09.280Z,26.89
2022-08-20T12:05:38.998Z,26.94
2022-08-20T12:08:07.226Z,26.91
2022-08-20T12:10:34.538Z,26.98
2022-08-20T12:13:04.513Z,26.84
2022-08-20T12:15:32.074Z,27.04
2022-08-20T12:18:00.353Z,27.12
2022-08-20T12:20:26.737Z,27.04
2022-08-20T12:22:54.007Z,27.03
2022-08-20T12:25:21.296Z,27.00
2022-08-20T12:27:48.544Z,27.16
2022-08-20T12:30:15.786Z,27.15
2022-08-20T12:32:43.028Z,27.21
2022-08-20T12:35:10.268Z,27.13
2022-08-20T12:37:37.521Z,27.02
2022-08-20T12:40:04.893Z,27.12
2022-08-20T12:42:32.219Z,27.16
2022-08-20T12:44:59.522Z,27.17
2022-08-20T12:47:25.900Z,27.29
2022-08-20T12:49:52.263Z,26.82
2022-08-20T12:52:18.628Z,26.68
2022-08-20T12:54:45.001Z,26.62
2022-08-20T12:57:11.344Z,26.56
2022-08-20T12:59:38.565Z,26.54
2022-08-20T13:02:18.748Z,26.51
2022-08-20T13:04:45.441Z,26.45
2022-08-20T13:07:11.886Z,26.47
2022-08-20T13:09:40.375Z,26.42
2022-08-20T13:12:06.919Z,26.39
2022-08-20T13:14:34.162Z,26.39
2022-08-20T13:17:00.854Z,26.38
2022-08-20T13:19:27.366Z,26.36
2022-08-20T13:21:55.103Z,26.36
2022-08-20T13:24:21.703Z,26.34
2022-08-20T13:26:48.082Z,26.32
2022-08-20T13:29:15.333Z,26.34
2022-08-20T13:31:42.591Z,26.35
2022-08-20T13:34:09.837Z,26.32
2022-08-20T13:36:36.227Z,26.30
2022-08-20T13:39:02.581Z,26.27
2022-08-20T13:41:29.017Z,26.34
2022-08-20T13:43:56.252Z,26.32
2022-08-20T13:46:23.890Z,26.31
2022-08-20T13:48:50.276Z,26.29
2022-08-20T13:51:19.099Z,26.26
2022-08-20T13:53:45.641Z,26.26
2022-08-20T13:56:13.994Z,26.25
2022-08-20T13:58:41.239Z,26.23
2022-08-20T14:01:07.620Z,26.22
2022-08-20T14:03:34.104Z,26.20
2022-08-20T14:06:00.455Z,26.20
2022-08-20T14:08:26.825Z,26.20
2022-08-20T14:10:53.174Z,26.19
2022-08-20T14:13:20.866Z,26.18
2022-08-20T14:15:47.298Z,26.18
2022-08-20T14:18:13.678Z,26.17
2022-08-20T14:20:40.916Z,26.16
2022-08-20T14:23:07.317Z,26.14
2022-08-20T14:25:33.685Z,26.15
2022-08-20T14:28:00.064Z,26.15
2022-08-20T14:30:27.288Z,26.14
2022-08-20T14:32:53.713Z,26.13
2022-08-20T14:35:21.007Z,26.13
2022-08-20T14:37:47.363Z,26.13
2022-08-20T14:40:14.612Z,26.13
2022-08-20T14:42:41.096Z,26.12
2022-08-20T14:45:10.512Z,26.12
2022-08-20T14:47:37.738Z,26.14
2022-08-20T14:50:05.047Z,26.16
2022-08-20T14:52:32.298Z,26.14
2022-08-20T14:54:59.545Z,26.14
2022-08-20T14:57:26.778Z,26.15
2022-08-20T14:59:53.987Z,26.14
2022-08-20T15:02:21.256Z,26.14
2022-08-20T15:04:51.660Z,26.14
2022-08-20T15:07:21.733Z,26.14
2022-08-20T15:09:49.542Z,26.13
2022-08-20T15:12:15.985Z,26.12
2022-08-20T15:14:43.229Z,26.13
2022-08-20T15:17:17.109Z,26.13
2022-08-20T15:19:43.532Z,26.13
2022-08-20T15:22:09.976Z,26.12
2022-08-20T15:24:37.205Z,26.11
2022-08-20T15:27:06.900Z,26.12
2022-08-20T15:29:33.280Z,26.12
2022-08-20T15:31:59.684Z,26.10
2022-08-20T15:34:26.146Z,26.11
2022-08-20T15:36:52.605Z,26.10
2022-08-20T15:39:19.034Z,26.10
2022-08-20T15:41:46.262Z,26.10
2022-08-20T15:44:14.519Z,26.10
2022-08-20T15:46:41.018Z,26.10
2022-08-20T15:49:07.422Z,26.09
2022-08-20T15:51:33.867Z,26.09
2022-08-20T15:54:02.105Z,26.09
2022-08-20T15:56:28.686Z,26.08
2022-08-20T15:58:57.000Z,26.08
2022-08-20T16:01:24.612Z,26.08
2022-08-20T16:03:51.484Z,26.09
2022-08-20T16:06:17.894Z,26.09
2022-08-20T16:08:47.050Z,26.08
2022-08-20T16:11:13.534Z,26.08
2022-08-20T16:13:39.982Z,26.07
2022-08-20T16:16:07.265Z,26.07
2022-08-20T16:18:33.747Z,26.09
2022-08-20T16:21:03.632Z,26.08
2022-08-20T16:23:32.229Z,26.07
2022-08-20T16:26:01.406Z,26.08
2022-08-20T16:28:27.815Z,26.07
2022-08-20T16:30:56.108Z,26.06
2022-08-20T16:33:22.559Z,26.07
2022-08-20T16:35:49.035Z,26.07
2022-08-20T16:38:20.857Z,26.06
2022-08-20T16:40:49.712Z,26.07
2022-08-20T16:43:16.426Z,26.06
2022-08-20T16:45:51.099Z,26.06
2022-08-20T16:48:19.832Z,26.05
2022-08-20T16:50:46.359Z,26.05
2022-08-20T16:53:14.584Z,26.06
2022-08-20T16:55:41.007Z,26.05
2022-08-20T16:58:07.629Z,26.05
2022-08-20T17:00:44.667Z,26.05
2022-08-20T17:03:11.968Z,26.05
2022-08-20T17:05:38.428Z,26.05
2022-08-20T17:08:07.373Z,26.06
2022-08-20T17:10:33.914Z,26.04
2022-08-20T17:13:00.370Z,26.04
2022-08-20T17:15:26.766Z,26.04
2022-08-20T17:17:53.281Z,26.04
2022-08-20T17:20:20.360Z,26.05
2022-08-20T17:22:47.120Z,26.04
2022-08-20T17:25:15.021Z,26.05
2022-08-20T17:27:41.495Z,26.03
2022-08-20T17:30:07.909Z,26.03
2022-08-20T17:32:35.137Z,26.03
2022-08-20T17:35:01.629Z,26.03
2022-08-20T17:37:28.101Z,26.04
2022-08-20T17:39:54.660Z,26.03
2022-08-20T17:42:25.870Z,26.03
2022-08-20T17:44:52.493Z,26.03
2022-08-20T17:47:24.275Z,26.03
2022-08-20T17:50:01.189Z,26.04
2022-08-20T17:52:28.984Z,26.03
2022-08-20T17:54:55.471Z,26.03
2022-08-20T17:57:21.896Z,26.02
2022-08-20T18:00:00.895Z,26.02
2022-08-20T18:02:28.139Z,26.00
2022-08-20T18:04:55.357Z,26.00
2022-08-20T18:07:22.703Z,26.00
2022-08-20T18:09:50.023Z,26.00
2022-08-20T18:12:24.186Z,25.98
2022-08-20T18:15:00.261Z,25.98
2022-08-20T18:17:26.713Z,25.96
2022-08-20T18:19:53.275Z,25.95
2022-08-20T18:22:20.630Z,25.96
2022-08-20T18:24:47.957Z,25.95
2022-08-20T18:27:14.417Z,25.96
2022-08-20T18:29:40.883Z,25.94
2022-08-20T18:32:07.416Z,25.93
2022-08-20T18:34:34.626Z,25.94
2022-08-20T18:37:01.122Z,25.92
2022-08-20T18:39:28.526Z,25.92
2022-08-20T18:41:55.854Z,25.93
2022-08-20T18:44:22.315Z,25.91
2022-08-20T18:46:51.367Z,25.91
2022-08-20T18:49:17.829Z,25.91
2022-08-20T18:51:44.268Z,25.90
2022-08-20T18:54:10.722Z,25.89
2022-08-20T18:56:37.171Z,25.88
2022-08-20T18:59:03.621Z,25.88
2022-08-20T19:01:30.994Z,25.88
2022-08-20T19:03:58.255Z,25.87
2022-08-20T19:06:24.679Z,25.87
2022-08-20T19:08:51.096Z,25.86
2022-08-20T19:11:17.568Z,25.86
2022-08-20T19:13:44.848Z,25.86
2022-08-20T19:16:12.115Z,25.86
2022-08-20T19:18:39.354Z,25.85
2022-08-20T19:21:06.632Z,25.84
2022-08-20T19:23:42.178Z,25.84
2022-08-20T19:26:12.422Z,25.83
2022-08-20T19:28:51.426Z,25.84
2022-08-20T19:31:18.720Z,25.83
2022-08-20T19:33:45.148Z,25.81
2022-08-20T19:36:12.517Z,25.55
2022-08-20T19:38:38.991Z,25.42
2022-08-20T19:41:11.234Z,25.38
2022-08-20T19:43:38.254Z,25.28
2022-08-20T19:46:04.766Z,25.21
2022-08-20T19:48:32.025Z,25.18
2022-08-20T19:50:58.530Z,25.12
2022-08-20T19:53:26.487Z,25.19
2022-08-20T19:55:57.628Z,25.18
2022-08-20T19:58:26.455Z,25.22
2022-08-20T20:00:53.299Z,25.13
2022-08-20T20:03:23.511Z,25.20
2022-08-20T20:05:53.445Z,25.26
2022-08-20T20:08:19.988Z,25.24
2022-08-20T20:10:46.348Z,25.24
2022-08-20T20:13:13.657Z,25.21
2022-08-20T20:15:40.121Z,25.28
2022-08-20T20:18:08.690Z,25.28
2022-08-20T20:20:37.022Z,25.20
2022-08-20T20:23:24.235Z,25.15
2022-08-20T20:25:52.491Z,25.23
2022-08-20T20:28:20.805Z,25.31
2022-08-20T20:30:47.259Z,25.36
2022-08-20T20:33:15.598Z,24.97
2022-08-20T20:35:44.782Z,25.02
2022-08-20T20:38:13.075Z,24.90
2022-08-20T20:40:39.525Z,24.86
2022-08-20T20:43:10.196Z,24.82
2022-08-20T20:45:36.699Z,24.80
2022-08-20T20:48:03.198Z,24.76
2022-08-20T20:50:32.419Z,24.76
2022-08-20T20:52:59.148Z,24.84
2022-08-20T20:55:25.657Z,24.83
2022-08-20T20:57:53.962Z,24.80
2022-08-20T21:00:20.354Z,24.77
2022-08-20T21:02:49.514Z,24.74
2022-08-20T21:05:19.528Z,24.69
2022-08-20T21:07:45.999Z,24.73
2022-08-20T21:10:17.407Z,24.67
2022-08-20T21:12:50.419Z,24.60
2022-08-20T21:15:19.093Z,24.64
2022-08-20T21:17:45.587Z,24.57
2022-08-20T21:20:12.088Z,24.58
2022-08-20T21:22:39.340Z,24.55
2022-08-20T21:25:05.823Z,24.55
2022-08-20T21:27:32.215Z,24.57
2022-08-20T21:30:01.396Z,24.51
2022-08-20T21:32:27.868Z,24.44
2022-08-20T21:34:54.346Z,24.43
2022-08-20T21:37:20.906Z,24.48
2022-08-20T21:39:47.442Z,24.44
2022-08-20T21:42:21.602Z,24.41
2022-08-20T21:44:55.362Z,24.44
2022-08-20T21:47:23.703Z,24.42
2022-08-20T21:49:50.293Z,24.50
2022-08-20T21:52:16.776Z,24.48
2022-08-20T21:54:44.045Z,24.47
2022-08-20T21:57:10.550Z,24.47
2022-08-20T21:59:37.024Z,24.49
2022-08-20T22:02:03.467Z,24.41
2022-08-20T22:04:34.784Z,24.39
2022-08-20T22:07:01.950Z,24.34
2022-08-20T22:09:28.460Z,24.41
2022-08-20T22:11:57.484Z,24.37
2022-08-20T22:14:27.258Z,24.39
2022-08-20T22:16:53.770Z,24.28
2022-08-20T22:19:20.164Z,24.31
2022-08-20T22:21:46.791Z,24.35
2022-08-20T22:24:14.068Z,24.27
2022-08-20T22:26:40.488Z,24.23
2022-08-20T22:29:07.759Z,24.14
2022-08-20T22:31:34.179Z,24.15
2022-08-20T22:34:00.621Z,24.20
2022-08-20T22:36:27.255Z,24.18
2022-08-20T22:38:54.619Z,24.11
2022-08-20T22:41:21.337Z,24.07
2022-08-20T22:43:57.202Z,23.98
2022-08-20T22:46:23.898Z,24.05
2022-08-20T22:48:56.362Z,24.11
2022-08-20T22:51:23.621Z,24.07
2022-08-20T22:53:50.105Z,24.13
2022-08-20T22:56:19.957Z,24.02
2022-08-20T22:58:50.461Z,23.94
2022-08-20T23:01:17.848Z,23.86
2022-08-20T23:03:44.378Z,23.88
2022-08-20T23:06:12.686Z,23.99
2022-08-20T23:08:39.937Z,23.97
2022-08-20T23:11:06.454Z,23.96
2022-08-20T23:13:32.941Z,23.92
2022-08-20T23:15:59.471Z,23.86
2022-08-20T23:18:26.752Z,23.83
2022-08-20T23:20:53.243Z,23.78
2022-08-20T23:23:20.543Z,23.88
2022-08-20T23:25:47.783Z,23.89
2022-08-20T23:28:14.233Z,23.80
2022-08-20T23:30:40.748Z,23.68
2022-08-20T23:33:07.264Z,23.60
2022-08-20T23:35:33.721Z,23.56
2022-08-20T23:38:02.039Z,23.50
2022-08-20T23:40:28.557Z,23.55
2022-08-20T23:42:55.105Z,23.48
2022-08-20T23:45:22.348Z,23.61
2022-08-20T23:47:49.613Z,23.62
2022-08-20T23:50:16.077Z,23.46
2022-08-20T23:52:42.539Z,23.43
2022-08-20T23:55:09.857Z,23.48
2022-08-20T23:57:36.807Z,23.44
